Time;durP1;ratioP1;P1;durP2;ratioP2;P2;SDS_P1;SDS_P2;PMS_P1;PMS_P2;Temp;Humidity;BMP_temperature;BMP_pressure;BME280_temperature;BME280_humidity;BME280_pressure;Samples;Min_cycle;Max_cycle;Signal;HPM_P1;HPM_P2
2022/03/30 00:00:58;;;;;;;;;;;12.60;67.30;;;;;;4928614;28;19926;-78
2022/03/30 00:03:24;;;;;;;;;;;12.60;67.40;;;;;;4950080;28;19978;-77
2022/03/30 00:05:51;;;;;;;;;;;12.60;67.40;;;;;;4937152;28;19993;-78
2022/03/30 00:08:18;;;;;;;;;;;12.60;67.50;;;;;;4942797;28;20443;-78
2022/03/30 00:10:47;;;;;;;;;;;12.60;67.50;;;;;;4955625;28;19972;-77
2022/03/30 00:13:15;;;;;;;;;;;12.60;67.60;;;;;;4950107;28;20331;-76
2022/03/30 00:15:42;;;;;;;;;;;12.60;67.50;;;;;;4952499;28;19926;-78
2022/03/30 00:18:09;;;;;;;;;;;12.50;67.50;;;;;;4954851;28;20316;-77
2022/03/30 00:20:36;;;;;;;;;;;12.50;67.50;;;;;;4949566;28;19951;-77
2022/03/30 00:23:03;;;;;;;;;;;12.50;67.50;;;;;;4951947;28;20634;-78
2022/03/30 00:25:31;;;;;;;;;;;12.50;67.50;;;;;;4953635;28;20029;-77
2022/03/30 00:28:01;;;;;;;;;;;12.50;67.60;;;;;;4931948;28;20182;-77
2022/03/30 00:30:27;;;;;;;;;;;12.50;67.60;;;;;;4953697;28;19977;-78
2022/03/30 00:32:54;;;;;;;;;;;12.40;67.50;;;;;;4954266;28;20305;-78
2022/03/30 00:35:21;;;;;;;;;;;12.40;67.60;;;;;;4954062;28;20016;-77
2022/03/30 00:37:50;;;;;;;;;;;12.40;67.60;;;;;;4952519;28;20033;-77
2022/03/30 00:40:19;;;;;;;;;;;12.40;67.90;;;;;;4949153;28;19927;-77
2022/03/30 00:42:47;;;;;;;;;;;12.40;67.80;;;;;;4953650;28;19926;-77
2022/03/30 00:45:16;;;;;;;;;;;12.40;67.70;;;;;;4949649;28;19927;-77
2022/03/30 00:47:43;;;;;;;;;;;12.40;67.70;;;;;;4949463;28;19938;-77
2022/03/30 00:50:12;;;;;;;;;;;12.40;67.70;;;;;;4949522;28;19926;-77
2022/03/30 00:52:39;;;;;;;;;;;12.40;67.80;;;;;;4952686;28;19927;-77
2022/03/30 00:55:07;;;;;;;;;;;12.40;67.70;;;;;;4954409;28;19927;-77
2022/03/30 00:57:37;;;;;;;;;;;12.30;67.60;;;;;;4950935;28;19926;-77
2022/03/30 01:00:05;;;;;;;;;;;12.30;67.50;;;;;;4952292;28;20316;-78
2022/03/30 01:02:34;;;;;;;;;;;12.30;67.50;;;;;;4947916;28;19926;-78
2022/03/30 01:05:02;;;;;;;;;;;12.30;67.50;;;;;;4977664;28;19982;-79
2022/03/30 01:07:29;;;;;;;;;;;12.30;67.40;;;;;;4969179;28;19931;-78
2022/03/30 01:09:55;;;;;;;;;;;12.30;67.40;;;;;;4954482;28;19988;-78
2022/03/30 01:12:22;;;;;;;;;;;12.30;67.50;;;;;;4956673;28;20021;-77
2022/03/30 01:14:50;;;;;;;;;;;12.30;67.50;;;;;;4956705;28;20351;-77
2022/03/30 01:17:17;;;;;;;;;;;12.30;67.60;;;;;;4952116;28;19927;-78
2022/03/30 01:19:45;;;;;;;;;;;12.20;67.50;;;;;;4945337;28;19926;-77
2022/03/30 01:22:14;;;;;;;;;;;12.20;67.50;;;;;;4953236;28;19976;-77
2022/03/30 01:24:41;;;;;;;;;;;12.20;67.50;;;;;;4957500;28;20320;-77
2022/03/30 01:27:08;;;;;;;;;;;12.20;67.50;;;;;;4962498;28;20400;-76
2022/03/30 01:32:29;;;;;;;;;;;12.20;67.60;;;;;;4953394;28;19921;-78
2022/03/30 01:34:57;;;;;;;;;;;12.20;67.60;;;;;;4951578;28;19931;-77
2022/03/30 01:37:27;;;;;;;;;;;12.20;67.60;;;;;;4951011;28;19938;-77
2022/03/30 01:39:54;;;;;;;;;;;12.10;67.60;;;;;;4949830;28;19989;-77
2022/03/30 01:42:21;;;;;;;;;;;12.10;67.60;;;;;;4951859;28;19936;-77
2022/03/30 01:44:49;;;;;;;;;;;12.10;67.70;;;;;;4948471;28;19926;-77
2022/03/30 01:47:16;;;;;;;;;;;12.10;67.80;;;;;;4949630;28;19962;-77
2022/03/30 01:49:45;;;;;;;;;;;12.10;67.80;;;;;;4981791;23;19926;-74
2022/03/30 01:52:15;;;;;;;;;;;12.10;67.80;;;;;;4987195;28;19926;-74
2022/03/30 01:54:46;;;;;;;;;;;12.10;67.80;;;;;;4986881;28;19930;-74
2022/03/30 01:57:13;;;;;;;;;;;12.00;67.90;;;;;;4991425;28;19933;-74
2022/03/30 01:59:41;;;;;;;;;;;12.00;67.90;;;;;;4991232;28;19925;-75
2022/03/30 02:02:08;;;;;;;;;;;12.00;67.80;;;;;;4987096;28;19926;-75
2022/03/30 02:04:36;;;;;;;;;;;12.00;67.90;;;;;;4990153;28;19934;-75
2022/03/30 02:07:03;;;;;;;;;;;12.00;68.00;;;;;;4987069;28;20013;-75
2022/03/30 02:09:30;;;;;;;;;;;12.00;68.00;;;;;;4990515;28;19925;-75
2022/03/30 02:11:59;;;;;;;;;;;12.00;68.00;;;;;;4971122;28;19925;-75
2022/03/30 02:14:26;;;;;;;;;;;11.90;67.90;;;;;;4991090;28;20450;-75
2022/03/30 02:16:53;;;;;;;;;;;11.90;67.90;;;;;;4967238;28;19925;-75
2022/03/30 02:19:20;;;;;;;;;;;11.90;67.90;;;;;;4989197;28;19933;-75
2022/03/30 02:21:47;;;;;;;;;;;11.90;67.90;;;;;;4971699;28;19926;-75
2022/03/30 02:24:15;;;;;;;;;;;11.90;67.90;;;;;;4991588;28;19933;-75
2022/03/30 02:26:42;;;;;;;;;;;11.90;68.00;;;;;;4978806;28;19972;-75
2022/03/30 02:29:11;;;;;;;;;;;11.90;68.00;;;;;;4992333;28;20384;-75
2022/03/30 02:31:38;;;;;;;;;;;11.90;68.10;;;;;;4991283;28;20361;-75
2022/03/30 02:34:08;;;;;;;;;;;11.90;68.00;;;;;;4988745;28;19980;-75
2022/03/30 02:36:35;;;;;;;;;;;11.80;68.00;;;;;;4992523;28;19930;-75
2022/03/30 02:39:03;;;;;;;;;;;11.80;68.10;;;;;;4989667;28;19980;-75
2022/03/30 02:41:30;;;;;;;;;;;11.80;68.10;;;;;;4989937;28;19926;-75
2022/03/30 02:43:57;;;;;;;;;;;11.80;68.00;;;;;;4991177;28;20044;-75
2022/03/30 02:46:27;;;;;;;;;;;11.80;68.00;;;;;;4990385;28;19936;-75
2022/03/30 02:48:54;;;;;;;;;;;11.80;68.10;;;;;;4989755;28;19965;-75
2022/03/30 02:51:21;;;;;;;;;;;11.80;68.10;;;;;;4970359;28;20344;-74
2022/03/30 02:53:48;;;;;;;;;;;11.70;68.10;;;;;;4984570;28;20088;-75
2022/03/30 02:56:15;;;;;;;;;;;11.70;68.00;;;;;;4974142;28;19929;-75
2022/03/30 02:58:43;;;;;;;;;;;11.70;68.00;;;;;;4977479;28;20422;-75
2022/03/30 03:01:11;;;;;;;;;;;11.70;68.10;;;;;;4988303;28;19930;-75
2022/03/30 03:03:40;;;;;;;;;;;11.70;68.00;;;;;;4985077;28;19996;-75
2022/03/30 03:06:07;;;;;;;;;;;11.70;68.10;;;;;;4988187;28;19934;-75
2022/03/30 03:08:34;;;;;;;;;;;11.70;68.00;;;;;;4987281;28;19926;-75
2022/03/30 03:11:01;;;;;;;;;;;11.70;68.10;;;;;;4987911;28;19929;-75
2022/03/30 03:13:28;;;;;;;;;;;11.60;67.90;;;;;;4987749;28;20398;-75
2022/03/30 03:15:55;;;;;;;;;;;11.60;67.90;;;;;;4971583;28;20388;-75
2022/03/30 03:18:22;;;;;;;;;;;11.60;67.90;;;;;;4987535;28;19926;-75
2022/03/30 03:20:53;;;;;;;;;;;11.60;67.90;;;;;;4987457;28;19930;-75
2022/03/30 03:23:20;;;;;;;;;;;11.60;68.00;;;;;;4971901;28;20311;-75
2022/03/30 03:25:47;;;;;;;;;;;11.60;68.00;;;;;;4988818;28;20327;-75
2022/03/30 03:28:14;;;;;;;;;;;11.60;68.10;;;;;;4990438;28;20466;-75
2022/03/30 03:30:44;;;;;;;;;;;11.60;68.00;;;;;;4989444;28;19926;-75
2022/03/30 03:33:11;;;;;;;;;;;11.60;68.10;;;;;;4988033;28;19926;-75
2022/03/30 03:35:38;;;;;;;;;;;11.50;68.10;;;;;;4989458;28;19940;-75
2022/03/30 03:38:08;;;;;;;;;;;11.50;68.00;;;;;;4987144;28;19948;-75
2022/03/30 03:40:35;;;;;;;;;;;11.50;67.90;;;;;;4988429;28;19926;-75
2022/03/30 03:43:02;;;;;;;;;;;11.50;68.00;;;;;;4970879;28;19926;-75
2022/03/30 03:45:30;;;;;;;;;;;11.50;68.10;;;;;;4988455;28;19941;-76
2022/03/30 03:47:57;;;;;;;;;;;11.50;68.00;;;;;;4990822;28;20010;-76
2022/03/30 03:50:26;;;;;;;;;;;11.50;68.00;;;;;;4974637;28;20468;-75
2022/03/30 03:52:53;;;;;;;;;;;11.50;68.00;;;;;;4990148;28;19979;-76
2022/03/30 03:55:21;;;;;;;;;;;11.50;68.10;;;;;;4974237;28;20412;-75
2022/03/30 03:57:49;;;;;;;;;;;11.50;68.00;;;;;;4985761;28;20406;-75
2022/03/30 04:00:17;;;;;;;;;;;11.50;68.10;;;;;;4981245;28;19930;-75
2022/03/30 04:02:43;;;;;;;;;;;11.40;68.00;;;;;;4989589;28;19930;-75
2022/03/30 04:05:13;;;;;;;;;;;11.40;68.10;;;;;;4982377;28;19930;-75
2022/03/30 04:07:41;;;;;;;;;;;11.40;68.10;;;;;;4992715;28;19929;-76
2022/03/30 04:10:09;;;;;;;;;;;11.40;68.10;;;;;;4999645;28;20016;-75
2022/03/30 04:12:38;;;;;;;;;;;11.40;68.30;;;;;;4987460;28;19926;-75
2022/03/30 04:15:05;;;;;;;;;;;11.40;68.20;;;;;;4992324;28;19933;-75
2022/03/30 04:17:35;;;;;;;;;;;11.40;68.10;;;;;;4993439;28;20285;-75
2022/03/30 04:20:02;;;;;;;;;;;11.40;68.20;;;;;;4984359;28;20462;-75
2022/03/30 04:22:29;;;;;;;;;;;11.40;68.20;;;;;;4984552;28;19946;-75
2022/03/30 04:24:56;;;;;;;;;;;11.40;68.20;;;;;;4986201;28;20404;-75
2022/03/30 04:27:23;;;;;;;;;;;11.30;68.20;;;;;;4988629;28;20033;-74
2022/03/30 04:29:53;;;;;;;;;;;11.30;68.20;;;;;;4983614;28;20463;-74
2022/03/30 04:32:20;;;;;;;;;;;11.30;68.30;;;;;;4987615;28;19929;-77
2022/03/30 04:34:47;;;;;;;;;;;11.30;68.40;;;;;;4974896;28;19925;-76
2022/03/30 04:37:13;;;;;;;;;;;11.30;68.40;;;;;;4987794;28;19926;-75
2022/03/30 04:39:41;;;;;;;;;;;11.30;68.50;;;;;;4993415;28;19976;-77
2022/03/30 04:42:08;;;;;;;;;;;11.30;68.60;;;;;;4986560;28;19969;-76
2022/03/30 04:44:35;;;;;;;;;;;11.20;68.60;;;;;;4987877;28;20008;-76
2022/03/30 04:47:03;;;;;;;;;;;11.30;68.90;;;;;;4987086;28;19980;-76
2022/03/30 04:49:30;;;;;;;;;;;11.20;68.90;;;;;;4986883;28;19972;-76
2022/03/30 04:51:57;;;;;;;;;;;11.20;69.20;;;;;;4973445;28;20419;-75
2022/03/30 04:54:24;;;;;;;;;;;11.20;69.10;;;;;;4971291;28;19933;-75
2022/03/30 04:56:51;;;;;;;;;;;11.20;69.20;;;;;;4986073;28;19925;-76
2022/03/30 04:59:19;;;;;;;;;;;11.20;69.50;;;;;;4983806;28;19961;-75
2022/03/30 05:01:45;;;;;;;;;;;11.20;69.60;;;;;;4971079;28;19926;-76
2022/03/30 05:04:14;;;;;;;;;;;11.20;69.80;;;;;;4987595;28;19941;-75
2022/03/30 05:06:41;;;;;;;;;;;11.20;69.70;;;;;;4986221;28;19930;-77
2022/03/30 05:09:07;;;;;;;;;;;11.20;70.10;;;;;;4990450;28;19929;-75
2022/03/30 05:11:34;;;;;;;;;;;11.20;70.10;;;;;;4987650;28;19933;-75
2022/03/30 05:14:01;;;;;;;;;;;11.10;70.20;;;;;;4985724;28;20432;-74
2022/03/30 05:16:28;;;;;;;;;;;11.10;70.70;;;;;;4982901;28;19934;-76
2022/03/30 05:18:55;;;;;;;;;;;11.20;70.70;;;;;;4989340;28;19933;-75
2022/03/30 05:21:23;;;;;;;;;;;11.10;70.70;;;;;;4984067;28;19965;-75
2022/03/30 05:23:50;;;;;;;;;;;11.10;70.80;;;;;;4972903;28;19965;-75
2022/03/30 05:26:17;;;;;;;;;;;11.10;71.00;;;;;;4994840;28;19930;-75
2022/03/30 05:28:44;;;;;;;;;;;11.10;70.90;;;;;;4991735;28;19961;-75
2022/03/30 05:31:11;;;;;;;;;;;11.10;71.00;;;;;;4990744;28;19937;-75
2022/03/30 05:33:38;;;;;;;;;;;11.10;71.00;;;;;;4990879;28;19930;-75
2022/03/30 05:36:05;;;;;;;;;;;11.10;71.20;;;;;;4991232;28;20383;-75
2022/03/30 05:38:34;;;;;;;;;;;11.10;71.40;;;;;;4987743;28;19956;-75
2022/03/30 05:41:02;;;;;;;;;;;11.10;71.60;;;;;;4990547;28;19926;-74
2022/03/30 05:43:29;;;;;;;;;;;11.10;71.50;;;;;;4988215;28;20038;-75
2022/03/30 05:45:56;;;;;;;;;;;11.10;71.40;;;;;;4970906;28;19930;-75
2022/03/30 05:48:22;;;;;;;;;;;11.10;71.30;;;;;;4971182;28;19929;-75
2022/03/30 05:50:51;;;;;;;;;;;11.10;71.30;;;;;;4972770;28;19980;-75
2022/03/30 05:53:18;;;;;;;;;;;11.10;71.40;;;;;;4989641;28;19988;-75
2022/03/30 05:55:47;;;;;;;;;;;11.10;71.90;;;;;;4991416;28;19926;-75
2022/03/30 05:58:14;;;;;;;;;;;11.10;71.00;;;;;;4989221;28;19969;-76
2022/03/30 06:00:41;;;;;;;;;;;11.00;70.90;;;;;;4992148;28;20289;-76
2022/03/30 06:03:10;;;;;;;;;;;11.00;70.90;;;;;;4991026;28;19937;-75
2022/03/30 06:05:36;;;;;;;;;;;11.00;71.10;;;;;;4973008;28;19926;-76
2022/03/30 06:08:04;;;;;;;;;;;11.00;71.00;;;;;;4990517;28;19980;-76
2022/03/30 06:10:31;;;;;;;;;;;11.00;71.20;;;;;;4974368;28;19934;-75
2022/03/30 06:12:59;;;;;;;;;;;11.00;71.20;;;;;;4988954;28;19933;-75
2022/03/30 06:15:26;;;;;;;;;;;11.00;71.30;;;;;;4991771;28;19925;-74
2022/03/30 06:17:54;;;;;;;;;;;11.00;71.30;;;;;;4987515;28;20020;-76
2022/03/30 06:20:22;;;;;;;;;;;10.90;71.40;;;;;;4991258;28;19932;-76
2022/03/30 06:22:49;;;;;;;;;;;11.00;71.40;;;;;;4991493;28;19936;-76
2022/03/30 06:25:16;;;;;;;;;;;11.00;71.80;;;;;;4989222;28;19940;-75
2022/03/30 06:27:43;;;;;;;;;;;10.90;71.60;;;;;;5000645;28;21137;-75
2022/03/30 06:30:12;;;;;;;;;;;10.90;71.70;;;;;;4992709;28;19934;-76
2022/03/30 06:32:39;;;;;;;;;;;10.90;71.60;;;;;;4991627;28;19940;-76
2022/03/30 06:35:06;;;;;;;;;;;10.90;71.80;;;;;;4988709;28;19930;-75
2022/03/30 06:37:33;;;;;;;;;;;10.90;71.70;;;;;;4976798;28;19957;-76
2022/03/30 06:40:00;;;;;;;;;;;10.90;71.50;;;;;;4974254;28;19929;-76
2022/03/30 06:42:27;;;;;;;;;;;10.90;71.50;;;;;;4991205;28;20025;-76
2022/03/30 06:44:56;;;;;;;;;;;10.90;71.60;;;;;;4987241;28;20020;-75
2022/03/30 06:47:25;;;;;;;;;;;10.90;71.70;;;;;;4990446;28;19936;-75
2022/03/30 06:49:52;;;;;;;;;;;10.90;71.70;;;;;;4991366;28;19961;-76
2022/03/30 06:52:18;;;;;;;;;;;10.90;71.80;;;;;;4995023;28;19930;-76
2022/03/30 06:54:45;;;;;;;;;;;10.90;71.70;;;;;;4994686;28;19964;-76
2022/03/30 06:57:12;;;;;;;;;;;10.80;71.60;;;;;;4986708;28;20411;-75
2022/03/30 06:59:39;;;;;;;;;;;10.80;71.80;;;;;;4993067;28;19976;-75
2022/03/30 07:02:06;;;;;;;;;;;10.80;72.00;;;;;;4989098;28;19976;-76
2022/03/30 07:04:35;;;;;;;;;;;10.80;71.80;;;;;;4990953;28;19933;-75
2022/03/30 07:12:32;;;;;;;;;;;10.80;72.00;;;;;;4989727;28;19921;-76
2022/03/30 07:15:00;;;;;;;;;;;10.80;71.90;;;;;;4996390;28;19957;-75
2022/03/30 07:17:27;;;;;;;;;;;10.80;72.20;;;;;;4978736;28;19930;-74
2022/03/30 07:19:56;;;;;;;;;;;10.80;72.00;;;;;;4991233;28;19932;-76
2022/03/30 07:22:22;;;;;;;;;;;10.80;72.80;;;;;;4991789;28;20447;-75
2022/03/30 07:24:49;;;;;;;;;;;10.70;72.50;;;;;;4992691;28;20396;-75
2022/03/30 07:27:16;;;;;;;;;;;10.80;73.00;;;;;;4992758;28;19925;-76
2022/03/30 07:29:43;;;;;;;;;;;10.70;72.80;;;;;;4995798;28;20340;-75
2022/03/30 07:32:10;;;;;;;;;;;10.80;73.10;;;;;;4991833;28;20728;-75
2022/03/30 07:34:37;;;;;;;;;;;10.70;72.80;;;;;;4990524;28;19933;-75
2022/03/30 07:37:06;;;;;;;;;;;10.80;73.10;;;;;;4993981;28;19925;-75
2022/03/30 07:39:33;;;;;;;;;;;10.80;73.80;;;;;;4989935;28;19926;-75
2022/03/30 07:42:00;;;;;;;;;;;10.80;74.30;;;;;;4975650;28;19929;-75
2022/03/30 07:44:31;;;;;;;;;;;10.80;73.90;;;;;;4992465;28;19929;-76
2022/03/30 07:46:59;;;;;;;;;;;10.70;74.40;;;;;;4989743;28;20303;-75
2022/03/30 07:49:25;;;;;;;;;;;10.70;75.40;;;;;;4990517;28;19934;-75
2022/03/30 07:51:52;;;;;;;;;;;10.80;75.60;;;;;;4991145;28;19933;-75
2022/03/30 07:54:21;;;;;;;;;;;10.80;75.60;;;;;;4992547;28;19984;-78
2022/03/30 07:56:50;;;;;;;;;;;10.80;75.80;;;;;;4987133;28;19952;-75
2022/03/30 07:59:17;;;;;;;;;;;10.80;76.30;;;;;;4973323;28;19926;-75
2022/03/30 08:01:44;;;;;;;;;;;10.80;75.60;;;;;;4989179;28;19926;-75
2022/03/30 08:04:11;;;;;;;;;;;10.80;75.70;;;;;;4972351;28;19925;-75
2022/03/30 08:06:38;;;;;;;;;;;10.80;75.50;;;;;;4995882;28;20312;-77
2022/03/30 08:09:05;;;;;;;;;;;10.80;75.70;;;;;;4985949;28;19926;-75
2022/03/30 08:11:34;;;;;;;;;;;10.80;75.90;;;;;;4989183;28;19933;-76
2022/03/30 08:14:01;;;;;;;;;;;10.80;76.10;;;;;;4986784;28;19926;-75
2022/03/30 08:16:28;;;;;;;;;;;10.80;76.10;;;;;;4988540;28;20464;-76
2022/03/30 08:18:56;;;;;;;;;;;10.80;75.50;;;;;;4999883;28;19926;-76
2022/03/30 08:24:07;;;;;;;;;;;10.80;75.30;;;;;;4991048;28;20000;-76
2022/03/30 08:26:37;;;;;;;;;;;10.80;75.80;;;;;;4986566;28;20013;-76
2022/03/30 08:29:05;;;;;;;;;;;10.80;76.20;;;;;;5000312;28;19964;-76
2022/03/30 08:31:33;;;;;;;;;;;10.80;76.40;;;;;;4972215;28;19925;-76
2022/03/30 08:34:00;;;;;;;;;;;10.80;77.10;;;;;;4989744;28;19929;-76
2022/03/30 08:36:29;;;;;;;;;;;10.80;77.80;;;;;;4994674;28;19992;-76
2022/03/30 08:38:56;;;;;;;;;;;10.80;77.30;;;;;;4992258;28;20020;-76
2022/03/30 08:41:23;;;;;;;;;;;10.80;77.30;;;;;;4993680;28;20427;-76
2022/03/30 08:43:52;;;;;;;;;;;10.80;78.50;;;;;;4992270;28;19929;-76
2022/03/30 08:46:20;;;;;;;;;;;10.80;78.90;;;;;;4971898;28;19945;-76
2022/03/30 08:48:47;;;;;;;;;;;10.80;78.60;;;;;;4988371;28;20024;-76
2022/03/30 08:51:15;;;;;;;;;;;10.80;78.50;;;;;;4989844;28;20069;-76
2022/03/30 08:53:42;;;;;;;;;;;10.80;78.10;;;;;;4991175;28;20012;-76
2022/03/30 08:56:09;;;;;;;;;;;10.80;77.60;;;;;;4989753;28;19926;-76
2022/03/30 08:58:36;;;;;;;;;;;10.80;79.60;;;;;;4993063;28;19933;-77
2022/03/30 09:01:11;;;;;;;;;;;10.80;79.80;;;;;;4967479;28;20335;-75
2022/03/30 09:03:54;;;;;;;;;;;10.90;79.20;;;;;;4991450;28;19930;-76
2022/03/30 09:06:28;;;;;;;;;;;10.90;79.50;;;;;;4989393;28;19937;-75
2022/03/30 09:08:57;;;;;;;;;;;10.90;79.60;;;;;;4983591;28;19932;-75
2022/03/30 09:11:26;;;;;;;;;;;10.90;78.40;;;;;;4994119;28;19957;-78
2022/03/30 09:14:00;;;;;;;;;;;10.90;78.30;;;;;;4996317;28;20043;-78
2022/03/30 09:16:38;;;;;;;;;;;10.80;78.40;;;;;;5012184;23;20014;-76
2022/03/30 09:19:05;;;;;;;;;;;10.90;79.20;;;;;;4919910;29;20014;-78
2022/03/30 09:21:40;;;;;;;;;;;10.90;79.70;;;;;;4919432;29;19998;-76
2022/03/30 09:24:07;;;;;;;;;;;10.90;80.80;;;;;;4910777;29;19927;-76
2022/03/30 09:26:34;;;;;;;;;;;10.90;79.60;;;;;;4921095;29;19927;-77
2022/03/30 09:29:02;;;;;;;;;;;10.90;80.60;;;;;;4938220;29;20335;-76
2022/03/30 09:31:30;;;;;;;;;;;10.90;80.50;;;;;;4915337;29;19934;-77
2022/03/30 09:34:00;;;;;;;;;;;10.90;79.00;;;;;;4907609;29;19927;-76
2022/03/30 09:36:28;;;;;;;;;;;10.90;80.60;;;;;;4926010;29;19927;-77
2022/03/30 09:38:55;;;;;;;;;;;10.90;80.30;;;;;;4918310;29;19941;-76
2022/03/30 09:41:22;;;;;;;;;;;10.90;81.20;;;;;;4912053;29;19935;-76
2022/03/30 09:43:48;;;;;;;;;;;10.90;82.50;;;;;;4910310;29;19927;-75
2022/03/30 09:46:16;;;;;;;;;;;10.90;82.50;;;;;;4912456;29;19931;-77
2022/03/30 09:48:49;;;;;;;;;;;10.90;81.90;;;;;;4915091;29;19927;-77
2022/03/30 09:51:18;;;;;;;;;;;11.00;83.20;;;;;;4914778;29;19931;-77
2022/03/30 09:53:46;;;;;;;;;;;10.90;82.10;;;;;;4918850;29;19927;-77
2022/03/30 09:56:15;;;;;;;;;;;11.00;82.40;;;;;;4917535;29;19938;-77
2022/03/30 09:58:43;;;;;;;;;;;10.90;81.90;;;;;;4914022;29;20690;-77
2022/03/30 10:01:11;;;;;;;;;;;11.00;82.70;;;;;;4922714;29;19928;-78
2022/03/30 10:03:41;;;;;;;;;;;11.00;82.50;;;;;;4913586;29;19934;-77
2022/03/30 10:06:10;;;;;;;;;;;10.90;83.70;;;;;;4916408;29;20306;-77
2022/03/30 10:08:39;;;;;;;;;;;11.00;83.10;;;;;;4916074;29;19934;-77
2022/03/30 10:11:06;;;;;;;;;;;11.00;83.20;;;;;;4919538;29;19974;-77
2022/03/30 10:13:33;;;;;;;;;;;11.00;83.30;;;;;;4920170;29;19927;-77
2022/03/30 10:16:00;;;;;;;;;;;11.00;82.80;;;;;;4926736;28;19933;-77
2022/03/30 10:18:27;;;;;;;;;;;11.00;81.80;;;;;;4914950;29;19995;-79
2022/03/30 10:21:04;;;;;;;;;;;10.60;92.80;;;;;;4918982;29;19934;-78
2022/03/30 10:23:39;;;;;;;;;;;10.20;95.60;;;;;;4921000;29;19927;-80
2022/03/30 10:26:13;;;;;;;;;;;10.00;99.20;;;;;;4913018;29;19928;-77
2022/03/30 10:28:46;;;;;;;;;;;10.10;99.90;;;;;;4912191;29;20416;-76
2022/03/30 10:31:13;;;;;;;;;;;10.20;99.90;;;;;;4922737;29;20394;-78
2022/03/30 10:33:44;;;;;;;;;;;10.70;99.90;;;;;;4910992;29;19990;-77
2022/03/30 10:36:21;;;;;;;;;;;10.90;99.90;;;;;;4911133;29;19927;-77
2022/03/30 10:39:07;;;;;;;;;;;11.10;99.30;;;;;;4895497;29;19975;-78
2022/03/30 10:41:49;;;;;;;;;;;11.10;98.50;;;;;;4915086;29;19942;-78
2022/03/30 10:44:34;;;;;;;;;;;11.20;97.90;;;;;;4910718;29;19991;-77
2022/03/30 10:47:07;;;;;;;;;;;11.20;97.80;;;;;;4904053;29;20446;-77
2022/03/30 10:49:38;;;;;;;;;;;11.20;97.50;;;;;;4923197;29;19965;-78
2022/03/30 10:52:24;;;;;;;;;;;11.30;97.20;;;;;;4927369;29;19935;-77
2022/03/30 10:54:55;;;;;;;;;;;11.30;97.00;;;;;;4908125;29;20334;-77
2022/03/30 10:57:49;;;;;;;;;;;11.30;96.50;;;;;;4910039;29;19938;-78
2022/03/30 11:00:19;;;;;;;;;;;11.30;96.60;;;;;;4889295;29;20416;-78
2022/03/30 11:02:46;;;;;;;;;;;11.30;96.20;;;;;;4923081;29;19927;-77
2022/03/30 11:05:13;;;;;;;;;;;11.30;96.20;;;;;;4912942;29;19931;-77
2022/03/30 11:07:41;;;;;;;;;;;11.30;96.30;;;;;;4914499;29;19934;-78
2022/03/30 11:10:24;;;;;;;;;;;11.30;96.20;;;;;;4908903;29;20030;-77
2022/03/30 11:13:11;;;;;;;;;;;11.30;96.10;;;;;;4916011;29;20286;-77
2022/03/30 11:15:56;;;;;;;;;;;11.30;95.90;;;;;;4909625;29;19935;-77
2022/03/30 11:18:25;;;;;;;;;;;11.30;95.80;;;;;;4913948;29;19934;-77
2022/03/30 11:21:11;;;;;;;;;;;11.30;95.80;;;;;;4916387;29;19927;-78
2022/03/30 11:23:38;;;;;;;;;;;11.30;95.60;;;;;;4911766;29;19927;-78
2022/03/30 11:26:05;;;;;;;;;;;11.30;95.20;;;;;;4930250;29;20461;-78
2022/03/30 11:28:36;;;;;;;;;;;11.30;95.80;;;;;;4903827;29;20328;-77
2022/03/30 11:31:05;;;;;;;;;;;11.30;96.30;;;;;;4922320;29;19931;-77
2022/03/30 11:33:34;;;;;;;;;;;11.30;96.10;;;;;;4914938;29;19952;-78
2022/03/30 11:36:03;;;;;;;;;;;11.30;96.10;;;;;;4909639;29;19933;-76
2022/03/30 11:38:37;;;;;;;;;;;11.30;96.40;;;;;;4916438;29;19933;-75
2022/03/30 11:41:06;;;;;;;;;;;11.30;96.30;;;;;;4910960;29;19946;-77
2022/03/30 11:45:12;;;;;;;;;;;11.30;95.80;;;;;;4910418;29;20072;-76
2022/03/30 11:46:26;;;;;;;;;;;11.30;95.80;;;;;;4905909;29;19978;-76
2022/03/30 11:48:59;;;;;;;;;;;11.30;96.10;;;;;;4914759;29;19953;-76
2022/03/30 11:51:26;;;;;;;;;;;11.30;96.00;;;;;;4904951;29;20308;-76
2022/03/30 11:54:08;;;;;;;;;;;11.30;95.60;;;;;;4906825;29;19935;-77
2022/03/30 11:56:35;;;;;;;;;;;11.30;95.60;;;;;;4908966;29;19927;-78
2022/03/30 11:59:02;;;;;;;;;;;11.30;96.00;;;;;;4905864;29;19934;-79
2022/03/30 12:01:29;;;;;;;;;;;11.30;96.00;;;;;;4908253;29;19931;-79
2022/03/30 12:03:58;;;;;;;;;;;11.30;96.00;;;;;;4918190;29;21880;-78
2022/03/30 12:06:25;;;;;;;;;;;11.20;96.00;;;;;;4923539;29;19939;-77
2022/03/30 12:08:52;;;;;;;;;;;11.20;95.40;;;;;;4908054;29;19930;-78
2022/03/30 12:11:20;;;;;;;;;;;11.20;95.70;;;;;;4906421;29;19946;-78
2022/03/30 12:13:50;;;;;;;;;;;11.30;96.20;;;;;;4922910;29;19928;-77
2022/03/30 12:16:17;;;;;;;;;;;11.20;95.80;;;;;;4909638;29;19928;-79
2022/03/30 12:18:45;;;;;;;;;;;11.20;95.80;;;;;;4918512;29;20014;-78
2022/03/30 12:21:15;;;;;;;;;;;11.20;95.40;;;;;;4913564;29;19932;-77
2022/03/30 12:23:55;;;;;;;;;;;11.20;95.80;;;;;;4921096;29;20022;-77
2022/03/30 12:26:23;;;;;;;;;;;11.20;95.30;;;;;;4922351;29;19947;-77
2022/03/30 12:28:50;;;;;;;;;;;11.20;95.90;;;;;;4916196;29;20305;-79
2022/03/30 12:31:17;;;;;;;;;;;11.20;96.00;;;;;;4912110;29;20018;-77
2022/03/30 12:33:45;;;;;;;;;;;11.20;95.80;;;;;;4941701;28;19915;-77
2022/03/30 12:36:21;;;;;;;;;;;11.20;95.90;;;;;;4947763;29;19943;-78
2022/03/30 12:38:50;;;;;;;;;;;11.20;95.70;;;;;;4926037;29;19962;-78
2022/03/30 12:41:23;;;;;;;;;;;11.20;96.00;;;;;;4919327;29;19933;-78
2022/03/30 12:44:00;;;;;;;;;;;11.20;96.30;;;;;;4924884;28;20279;-77
2022/03/30 12:46:29;;;;;;;;;;;11.20;96.30;;;;;;4910117;29;20366;-78
2022/03/30 12:49:03;;;;;;;;;;;11.10;96.00;;;;;;4906233;29;20382;-78
2022/03/30 12:51:33;;;;;;;;;;;11.20;95.10;;;;;;4910524;29;19931;-78
2022/03/30 12:54:00;;;;;;;;;;;11.20;96.30;;;;;;4913249;29;19935;-78
2022/03/30 12:56:27;;;;;;;;;;;11.20;96.00;;;;;;4910771;29;19927;-78
2022/03/30 12:58:55;;;;;;;;;;;11.20;95.40;;;;;;4905902;29;20010;-79
2022/03/30 13:01:29;;;;;;;;;;;11.20;96.00;;;;;;4926624;29;20329;-80
2022/03/30 13:03:58;;;;;;;;;;;11.20;96.10;;;;;;4932329;29;19958;-79
2022/03/30 13:06:27;;;;;;;;;;;11.20;96.20;;;;;;4909457;29;19934;-78
2022/03/30 13:09:14;;;;;;;;;;;11.20;96.20;;;;;;4921893;29;19927;-78
2022/03/30 13:11:42;;;;;;;;;;;11.30;95.90;;;;;;4929275;29;19926;-77
2022/03/30 13:14:13;;;;;;;;;;;11.30;95.90;;;;;;4921296;29;19927;-78
2022/03/30 13:16:40;;;;;;;;;;;11.30;96.20;;;;;;4924877;29;19982;-80
2022/03/30 13:19:09;;;;;;;;;;;11.30;96.50;;;;;;4926872;28;19926;-79
2022/03/30 13:21:37;;;;;;;;;;;11.30;95.70;;;;;;4919127;29;20457;-78
2022/03/30 13:24:13;;;;;;;;;;;11.30;96.20;;;;;;4909321;29;19946;-78
2022/03/30 13:26:41;;;;;;;;;;;11.30;95.50;;;;;;4913931;29;19934;-77
2022/03/30 13:29:09;;;;;;;;;;;11.30;95.30;;;;;;4908317;29;20037;-78
2022/03/30 13:31:43;;;;;;;;;;;11.30;95.80;;;;;;4903332;29;19931;-77
2022/03/30 13:34:10;;;;;;;;;;;11.40;96.10;;;;;;4925450;29;19927;-78
2022/03/30 13:36:38;;;;;;;;;;;11.40;95.80;;;;;;4913890;29;19950;-79
2022/03/30 13:39:06;;;;;;;;;;;11.40;96.40;;;;;;4910173;29;19981;-77
2022/03/30 13:41:35;;;;;;;;;;;11.40;97.00;;;;;;4921983;29;20010;-77
2022/03/30 13:44:02;;;;;;;;;;;11.40;96.30;;;;;;4923613;29;20018;-77
2022/03/30 13:46:29;;;;;;;;;;;11.40;96.60;;;;;;4908082;29;19935;-76
2022/03/30 13:48:56;;;;;;;;;;;11.40;96.20;;;;;;4924902;29;19975;-76
2022/03/30 13:51:23;;;;;;;;;;;11.40;96.20;;;;;;4927553;29;19934;-77
2022/03/30 13:53:51;;;;;;;;;;;11.50;96.20;;;;;;4911413;29;19935;-76
2022/03/30 13:56:18;;;;;;;;;;;11.50;96.40;;;;;;4913466;29;19927;-77
2022/03/30 13:58:50;;;;;;;;;;;11.50;97.30;;;;;;4913183;29;20469;-76
2022/03/30 14:01:17;;;;;;;;;;;11.60;96.70;;;;;;4910850;29;20469;-76
2022/03/30 14:03:44;;;;;;;;;;;11.60;96.80;;;;;;4911326;29;19931;-76
2022/03/30 14:06:11;;;;;;;;;;;11.60;96.90;;;;;;4917378;29;19934;-77
2022/03/30 14:08:38;;;;;;;;;;;11.60;97.10;;;;;;4914843;29;20405;-77
2022/03/30 14:11:05;;;;;;;;;;;11.60;97.60;;;;;;4929856;29;19927;-77
2022/03/30 14:13:32;;;;;;;;;;;11.70;97.50;;;;;;4912986;29;20537;-76
2022/03/30 14:18:30;;;;;;;;;;;11.70;97.30;;;;;;4955862;23;20005;-77
2022/03/30 14:20:57;;;;;;;;;;;11.80;96.70;;;;;;4967887;28;20318;-76
2022/03/30 14:23:25;;;;;;;;;;;11.80;97.10;;;;;;4955657;28;19985;-77
2022/03/30 14:25:53;;;;;;;;;;;11.80;97.20;;;;;;4966030;28;19935;-76
2022/03/30 14:28:20;;;;;;;;;;;11.80;97.20;;;;;;4952285;28;19935;-77
2022/03/30 14:30:47;;;;;;;;;;;11.90;97.40;;;;;;4937904;28;20844;-77
2022/03/30 14:33:14;;;;;;;;;;;11.80;97.00;;;;;;4938197;28;19927;-76
2022/03/30 14:35:43;;;;;;;;;;;11.90;96.40;;;;;;4935594;28;19933;-76
2022/03/30 14:38:11;;;;;;;;;;;11.90;96.90;;;;;;4955683;28;20328;-76